Time;durP1;ratioP1;P1;durP2;ratioP2;P2;SDS_P1;SDS_P2;PMS_P1;PMS_P2;Temp;Humidity;BMP_temperature;BMP_pressure;BME280_temperature;BME280_humidity;BME280_pressure;Samples;Min_cycle;Max_cycle;Signal;HPM_P1;HPM_P2
2023/12/20 00:01:54;;;;;;;14.43;10.63;;;;;;;6.97;100.00;98987.00;4896243;29;20037;-86
2023/12/20 00:04:20;;;;;;;16.10;10.05;;;;;;;6.90;100.00;98984.72;4881323;29;20035;-86
2023/12/20 00:06:45;;;;;;;13.38;9.90;;;;;;;6.96;100.00;98987.91;4878101;29;20063;-87
2023/12/20 00:09:11;;;;;;;15.88;9.77;;;;;;;7.23;100.00;99024.72;4908077;29;20486;-86
2023/12/20 00:11:41;;;;;;;15.43;10.38;;;;;;;7.30;100.00;99034.84;4915777;29;20046;-86
2023/12/20 00:14:07;;;;;;;13.70;9.13;;;;;;;7.29;100.00;99028.81;4900636;29;20066;-86
2023/12/20 00:16:33;;;;;;;13.98;10.45;;;;;;;7.15;100.00;99000.06;4904229;29;20048;-86
2023/12/20 00:18:58;;;;;;;16.17;10.10;;;;;;;7.12;100.00;98984.66;4921414;29;20039;-87
2023/12/20 00:21:24;;;;;;;15.82;10.23;;;;;;;7.29;100.00;99017.59;4904002;29;20426;-86
2023/12/20 00:23:49;;;;;;;13.30;9.32;;;;;;;7.14;100.00;98993.22;4914440;29;20133;-86
2023/12/20 00:26:16;;;;;;;10.90;9.27;;;;;;;7.16;100.00;99005.19;4913860;29;20486;-87
2023/12/20 00:28:42;;;;;;;11.85;8.00;;;;;;;7.04;100.00;98989.31;4913989;29;20393;-86
2023/12/20 00:31:08;;;;;;;12.60;7.93;;;;;;;7.04;100.00;98974.66;4914111;29;20127;-86
2023/12/20 00:33:33;;;;;;;8.05;7.20;;;;;;;6.94;100.00;98958.66;4897961;29;20512;-86
2023/12/20 00:35:58;;;;;;;9.20;6.93;;;;;;;7.09;100.00;98979.63;4914076;29;20374;-86
2023/12/20 00:38:24;;;;;;;7.95;6.43;;;;;;;6.99;100.00;98961.03;4913723;29;20047;-86
2023/12/20 00:40:50;;;;;;;8.50;7.00;;;;;;;7.10;100.00;98969.19;4935283;29;20437;-86
2023/12/20 00:43:15;;;;;;;8.57;6.85;;;;;;;7.16;100.00;98988.78;4935464;29;20075;-86
2023/12/20 00:45:40;;;;;;;11.18;6.80;;;;;;;6.99;100.00;98959.31;4933875;29;20035;-86
2023/12/20 00:48:07;;;;;;;7.45;6.38;;;;;;;7.26;100.00;99000.44;4918275;29;20039;-86
2023/12/20 00:50:33;;;;;;;7.40;5.97;;;;;;;7.25;100.00;98991.84;4935264;29;20034;-86
2023/12/20 00:52:59;;;;;;;7.47;6.43;;;;;;;7.11;100.00;98962.25;4935324;29;20027;-86
2023/12/20 00:55:24;;;;;;;8.70;7.07;;;;;;;7.23;100.00;98985.03;4931031;29;20048;-86
2023/12/20 00:57:50;;;;;;;7.78;6.55;;;;;;;7.06;100.00;98966.81;4899052;29;20115;-86
2023/12/20 01:00:15;;;;;;;6.70;6.00;;;;;;;7.00;100.00;98958.41;4916207;29;20032;-86
2023/12/20 01:02:41;;;;;;;7.63;6.47;;;;;;;7.00;100.00;98961.00;4915937;29;20024;-86
2023/12/20 01:05:09;;;;;;;7.63;6.15;;;;;;;7.09;100.00;98969.28;4915996;29;20032;-86
2023/12/20 01:07:34;;;;;;;7.00;6.30;;;;;;;7.06;100.00;98970.22;4915991;29;20031;-86
2023/12/20 01:10:00;;;;;;;8.57;6.68;;;;;;;7.11;100.00;98976.03;4914969;29;20032;-86
2023/12/20 01:12:26;;;;;;;8.38;6.80;;;;;;;7.19;100.00;98988.66;4916188;29;20028;-86
2023/12/20 01:14:51;;;;;;;7.57;6.63;;;;;;;7.19;100.00;98988.66;4915964;29;20128;-86
2023/12/20 01:17:18;;;;;;;8.15;6.40;;;;;;;7.01;100.00;98954.06;4916015;29;20462;-86
2023/12/20 01:19:46;;;;;;;10.27;7.32;;;;;;;7.18;100.00;98993.00;4915902;29;20489;-86
2023/12/20 01:22:13;;;;;;;8.55;6.78;;;;;;;7.01;100.00;98961.81;4898998;29;20029;-86
2023/12/20 01:24:39;;;;;;;9.25;6.65;;;;;;;7.16;100.00;98987.06;4915483;29;20470;-86
2023/12/20 01:27:06;;;;;;;9.13;6.18;;;;;;;7.00;100.00;98971.34;4916041;29;20025;-86
2023/12/20 01:29:32;;;;;;;8.10;6.10;;;;;;;6.96;100.00;98958.59;4899010;29;20388;-86
2023/12/20 01:31:57;;;;;;;7.63;5.85;;;;;;;7.08;100.00;98989.16;4916133;29;20107;-86
2023/12/20 01:34:22;;;;;;;8.10;6.30;;;;;;;6.97;100.00;98976.66;4916285;29;20046;-86
2023/12/20 01:36:48;;;;;;;6.97;5.70;;;;;;;7.07;100.00;98979.66;4917242;29;20035;-86
2023/12/20 01:39:15;;;;;;;8.10;6.65;;;;;;;6.85;100.00;98942.69;4919447;29;20481;-86
2023/12/20 01:41:40;;;;;;;6.22;5.05;;;;;;;7.05;100.00;98980.66;4918169;29;20051;-86
2023/12/20 01:44:07;;;;;;;7.03;6.05;;;;;;;7.00;100.00;98955.81;4902470;29;20504;-86
2023/12/20 01:46:33;;;;;;;9.00;5.72;;;;;;;6.57;100.00;98884.31;4919514;29;20394;-86
2023/12/20 01:48:58;;;;;;;7.07;5.55;;;;;;;6.99;100.00;98955.84;4902313;29;20028;-86
2023/12/20 01:51:27;;;;;;;6.47;5.28;;;;;;;6.65;100.00;98907.28;4919388;29;20028;-86
2023/12/20 01:53:53;;;;;;;8.10;5.88;;;;;;;6.79;100.00;98928.25;4919280;29;20028;-86
2023/12/20 01:56:19;;;;;;;7.68;6.88;;;;;;;6.91;100.00;98932.03;4918933;29;20047;-86
2023/12/20 01:58:47;;;;;;;7.88;6.50;;;;;;;6.86;100.00;98911.53;4919138;29;20466;-86
2023/12/20 02:01:15;;;;;;;8.02;6.45;;;;;;;6.84;100.00;98920.28;4919364;29;20036;-86
2023/12/20 02:03:41;;;;;;;6.35;5.70;;;;;;;6.95;100.00;98938.78;4902017;29;20032;-86
2023/12/20 02:06:09;;;;;;;7.55;5.97;;;;;;;6.93;100.00;98938.00;4902180;29;20455;-86
2023/12/20 02:08:35;;;;;;;7.13;6.13;;;;;;;6.84;100.00;98926.31;4902219;29;20032;-86
2023/12/20 02:11:01;;;;;;;6.07;5.47;;;;;;;6.90;100.00;98930.38;4918929;29;20039;-86
2023/12/20 02:13:35;;;;;;;7.63;6.20;;;;;;;6.89;100.00;98936.47;4885341;29;20426;-86
2023/12/20 02:16:00;;;;;;;6.85;5.95;;;;;;;6.88;100.00;98938.22;4918834;29;20043;-86
2023/12/20 02:18:27;;;;;;;9.32;6.72;;;;;;;6.89;100.00;98928.69;4919013;29;20114;-86
2023/12/20 02:20:54;;;;;;;8.20;5.97;;;;;;;6.69;100.00;98888.13;4870533;29;20044;-86
2023/12/20 02:23:20;;;;;;;8.10;6.65;;;;;;;6.44;100.00;98845.19;4918707;29;20402;-86
2023/12/20 02:25:46;;;;;;;9.60;6.50;;;;;;;6.49;100.00;98861.38;4918572;29;20032;-86
2023/12/20 02:28:11;;;;;;;7.35;6.40;;;;;;;6.88;100.00;98927.03;4919227;29;20024;-86
2023/12/20 02:30:38;;;;;;;7.10;5.75;;;;;;;6.81;100.00;98923.00;4901801;29;20470;-86
2023/12/20 02:33:08;;;;;;;7.50;5.75;;;;;;;6.76;100.00;98915.44;4901471;29;20055;-86
2023/12/20 02:35:34;;;;;;;6.22;5.03;;;;;;;6.84;100.00;98933.25;4914122;29;20039;-86
2023/12/20 02:37:59;;;;;;;7.38;4.75;;;;;;;6.78;100.00;98928.31;4878213;29;20063;-86
2023/12/20 02:40:24;;;;;;;5.50;4.38;;;;;;;6.72;100.00;98924.25;4878621;29;20613;-86
2023/12/20 02:42:50;;;;;;;5.68;4.53;;;;;;;6.53;100.00;98889.69;4878137;29;20122;-86
2023/12/20 02:45:15;;;;;;;4.60;3.42;;;;;;;6.56;100.00;98907.69;4878527;29;20098;-86
2023/12/20 02:47:42;;;;;;;3.58;2.88;;;;;;;6.53;100.00;98895.72;4877462;29;20136;-86
2023/12/20 02:50:08;;;;;;;4.10;2.88;;;;;;;6.65;100.00;98913.28;4878704;29;20029;-86
2023/12/20 02:52:33;;;;;;;3.42;2.50;;;;;;;6.61;100.00;98911.75;4878266;29;20045;-86
2023/12/20 02:54:59;;;;;;;3.38;2.63;;;;;;;6.32;100.00;98857.81;4877891;29;20039;-86
2023/12/20 02:57:25;;;;;;;2.58;2.33;;;;;;;6.63;100.00;98912.53;4878110;29;20056;-86
2023/12/20 02:59:51;;;;;;;2.83;2.58;;;;;;;6.32;100.00;98852.63;4891942;29;20446;-86
2023/12/20 03:02:16;;;;;;;3.20;2.83;;;;;;;6.48;100.00;98879.53;4897120;29;20395;-86
2023/12/20 03:04:43;;;;;;;2.60;2.40;;;;;;;6.43;100.00;98863.38;4896489;29;20120;-85
2023/12/20 03:07:08;;;;;;;2.88;2.40;;;;;;;6.42;100.00;98866.88;4881181;29;20398;-86
2023/12/20 03:09:34;;;;;;;2.78;2.17;;;;;;;6.67;100.00;98900.31;4926694;29;20035;-86
2023/12/20 03:11:59;;;;;;;2.38;1.88;;;;;;;6.64;100.00;98903.84;4915272;29;20044;-86
2023/12/20 03:14:25;;;;;;;4.32;2.40;;;;;;;6.60;100.00;98899.72;4859305;29;20420;-86
2023/12/20 03:16:50;;;;;;;3.28;2.47;;;;;;;6.46;100.00;98887.38;4828584;29;20125;-86
2023/12/20 03:19:19;;;;;;;2.22;2.00;;;;;;;6.42;100.00;98872.88;4843798;29;20070;-86
2023/12/20 03:21:45;;;;;;;2.65;2.40;;;;;;;6.61;100.00;98909.16;4858987;29;20045;-86
2023/12/20 03:24:17;;;;;;;2.95;2.25;;;;;;;6.57;100.00;98906.75;4859217;29;20037;-86
2023/12/20 03:26:42;;;;;;;3.15;2.08;;;;;;;6.54;100.00;98907.75;4859212;29;20042;-86
2023/12/20 03:29:07;;;;;;;2.50;2.30;;;;;;;6.34;100.00;98872.38;4840314;29;20070;-86
2023/12/20 03:31:32;;;;;;;2.65;2.42;;;;;;;6.39;100.00;98895.44;4840632;29;20037;-86
2023/12/20 03:33:58;;;;;;;2.58;2.28;;;;;;;6.44;100.00;98896.94;4840310;29;20053;-86
2023/12/20 03:36:23;;;;;;;2.95;2.42;;;;;;;6.18;100.00;98858.38;4840919;29;20081;-86
2023/12/20 03:38:49;;;;;;;2.50;2.30;;;;;;;6.18;100.00;98866.97;4840454;29;20078;-86
2023/12/20 03:41:16;;;;;;;2.45;2.25;;;;;;;6.27;100.00;98875.25;4840570;29;20395;-86
2023/12/20 03:43:43;;;;;;;4.25;2.58;;;;;;;6.05;100.00;98839.97;4855230;29;20461;-86
2023/12/20 03:46:08;;;;;;;3.00;2.42;;;;;;;6.22;100.00;98873.72;4858445;29;20167;-86
2023/12/20 03:48:34;;;;;;;3.22;2.53;;;;;;;6.19;100.00;98871.28;4858647;29;20037;-86
2023/12/20 03:51:00;;;;;;;3.60;2.28;;;;;;;6.22;100.00;98875.47;4867181;29;20436;-86
2023/12/20 03:53:26;;;;;;;3.05;2.70;;;;;;;6.32;100.00;98888.84;4914713;29;20036;-86
2023/12/20 03:55:54;;;;;;;2.88;2.50;;;;;;;6.44;100.00;98912.44;4914213;29;20134;-86
2023/12/20 03:58:20;;;;;;;2.70;2.50;;;;;;;5.92;100.00;98826.69;4914646;29;20040;-86
2023/12/20 04:00:47;;;;;;;4.15;2.88;;;;;;;6.23;100.00;98872.78;4930577;29;20044;-86
2023/12/20 04:03:13;;;;;;;3.40;2.55;;;;;;;6.36;100.00;98903.31;4936217;29;20023;-86
2023/12/20 04:05:42;;;;;;;2.92;2.63;;;;;;;6.12;100.00;98843.97;4935942;29;20476;-86
2023/12/20 04:08:13;;;;;;;3.88;2.70;;;;;;;6.22;100.00;98862.53;4935869;29;20019;-86
2023/12/20 04:10:38;;;;;;;3.35;3.05;;;;;;;6.33;100.00;98883.63;4935955;29;20032;-86
2023/12/20 04:13:04;;;;;;;2.83;2.60;;;;;;;6.05;100.00;98839.13;4918605;29;20107;-86
2023/12/20 04:15:29;;;;;;;3.63;3.08;;;;;;;6.44;100.00;98904.69;4936028;29;20036;-86
2023/12/20 04:17:55;;;;;;;4.75;3.20;;;;;;;6.19;100.00;98867.81;4918511;29;20020;-86
2023/12/20 04:20:21;;;;;;;4.35;3.17;;;;;;;6.44;100.00;98911.63;4918679;29;20585;-86
2023/12/20 04:22:51;;;;;;;4.10;3.25;;;;;;;6.44;100.00;98906.44;4935534;29;20028;-86
2023/12/20 04:25:28;;;;;;;3.35;3.05;;;;;;;6.39;100.00;98893.69;4918527;29;20056;-86
2023/12/20 04:28:04;;;;;;;3.22;2.92;;;;;;;6.41;100.00;98901.41;4886510;29;20144;-86
2023/12/20 04:30:30;;;;;;;3.60;3.30;;;;;;;6.34;100.00;98881.88;4901873;29;20056;-86
2023/12/20 04:32:55;;;;;;;3.10;2.80;;;;;;;6.42;100.00;98898.75;4934134;29;20556;-86
2023/12/20 04:35:21;;;;;;;4.32;3.25;;;;;;;6.39;100.00;98898.03;4901682;29;20039;-86
2023/12/20 04:37:47;;;;;;;3.45;3.15;;;;;;;6.36;100.00;98885.22;4935457;29;20122;-86
2023/12/20 04:40:13;;;;;;;3.20;2.90;;;;;;;6.10;100.00;98848.34;4918378;29;20038;-86
2023/12/20 04:42:40;;;;;;;4.10;2.95;;;;;;;6.25;100.00;98870.16;4918376;29;20035;-86
2023/12/20 04:45:06;;;;;;;3.30;2.95;;;;;;;6.14;100.00;98849.91;4935141;29;20066;-86
2023/12/20 04:47:32;;;;;;;3.22;2.92;;;;;;;6.27;100.00;98864.91;4935356;29;20038;-86
2023/12/20 04:49:59;;;;;;;3.42;3.13;;;;;;;6.12;100.00;98838.81;4918063;29;20475;-86
2023/12/20 04:52:26;;;;;;;5.95;3.33;;;;;;;6.35;100.00;98871.44;4935409;29;20062;-86
2023/12/20 04:54:53;;;;;;;5.07;2.90;;;;;;;6.40;100.00;98886.78;4930936;29;20038;-86
2023/12/20 04:57:18;;;;;;;3.47;3.17;;;;;;;6.04;100.00;98817.59;4935398;29;20090;-86
2023/12/20 04:59:44;;;;;;;3.80;3.40;;;;;;;6.27;100.00;98854.56;4935283;29;20055;-86
2023/12/20 05:02:09;;;;;;;4.72;3.75;;;;;;;6.20;100.00;98844.50;4935065;29;20050;-86
2023/12/20 05:04:34;;;;;;;4.28;3.63;;;;;;;5.73;100.00;98776.63;4935145;29;20354;-86
2023/12/20 05:07:00;;;;;;;3.83;3.47;;;;;;;6.29;100.00;98876.91;4934972;29;20032;-86
2023/12/20 05:09:27;;;;;;;3.92;3.38;;;;;;;6.33;100.00;98883.63;4935176;29;20034;-86
2023/12/20 05:11:53;;;;;;;4.38;3.67;;;;;;;6.19;100.00;98847.13;4923316;29;20384;-86
2023/12/20 05:14:19;;;;;;;4.35;3.75;;;;;;;6.14;100.00;98833.56;4941520;29;20027;-86
2023/12/20 05:16:45;;;;;;;4.18;3.75;;;;;;;6.25;100.00;98855.50;4941463;29;20027;-86
2023/12/20 05:19:11;;;;;;;4.30;3.75;;;;;;;6.26;100.00;98853.75;4941182;29;20058;-86
2023/12/20 05:21:37;;;;;;;4.70;4.30;;;;;;;6.16;100.00;98842.13;4941437;29;20110;-86
2023/12/20 05:24:06;;;;;;;5.03;3.72;;;;;;;6.12;100.00;98843.97;4907126;29;20051;-86
2023/12/20 05:26:33;;;;;;;4.72;4.28;;;;;;;6.32;100.00;98866.44;4941053;29;20429;-86
2023/12/20 05:28:58;;;;;;;5.38;4.30;;;;;;;6.39;100.00;98873.00;4892207;29;20094;-86
2023/12/20 05:31:25;;;;;;;6.53;4.68;;;;;;;5.95;100.00;98813.66;4941678;29;20028;-86
2023/12/20 05:33:53;;;;;;;4.63;3.53;;;;;;;6.33;100.00;98875.88;4941073;29;20031;-86
2023/12/20 05:36:19;;;;;;;5.10;4.00;;;;;;;6.22;100.00;98855.59;4924181;29;20488;-86
2023/12/20 05:38:45;;;;;;;5.63;4.57;;;;;;;6.38;100.00;98891.19;4900858;29;20615;-86
2023/12/20 05:41:11;;;;;;;4.70;4.30;;;;;;;6.22;100.00;98859.94;4885060;29;20142;-86
2023/12/20 05:43:37;;;;;;;4.97;4.38;;;;;;;6.38;100.00;98889.44;4885195;29;20045;-86
2023/12/20 05:46:03;;;;;;;4.32;3.92;;;;;;;6.15;100.00;98853.34;4900636;29;20554;-86
2023/12/20 05:48:49;;;;;;;4.63;4.20;;;;;;;6.37;100.00;98894.69;4900972;29;20033;-86
2023/12/20 05:51:16;;;;;;;4.75;4.30;;;;;;;6.22;100.00;98865.13;4826312;29;20045;-86
2023/12/20 05:53:41;;;;;;;5.25;4.47;;;;;;;6.36;100.00;98886.09;4824169;29;20062;-86
2023/12/20 05:56:08;;;;;;;5.63;4.80;;;;;;;6.39;100.00;98890.28;4826427;29;20077;-86
2023/12/20 05:58:36;;;;;;;5.40;4.70;;;;;;;6.31;100.00;98876.81;4811683;29;20047;-86
2023/12/20 06:01:08;;;;;;;5.07;4.57;;;;;;;6.15;100.00;98846.44;4827605;29;20046;-86
2023/12/20 06:03:34;;;;;;;4.90;4.32;;;;;;;6.25;100.00;98865.84;4812196;29;20137;-86
2023/12/20 06:06:09;;;;;;;5.82;4.70;;;;;;;6.32;100.00;98881.09;4827292;29;20054;-86
2023/12/20 06:08:36;;;;;;;5.40;4.60;;;;;;;6.06;100.00;98841.63;4827394;29;20034;-86
2023/12/20 06:11:01;;;;;;;5.57;4.40;;;;;;;6.03;100.00;98840.94;4827399;29;20051;-86
2023/12/20 06:13:27;;;;;;;5.15;4.65;;;;;;;6.26;100.00;98877.00;4837260;29;20555;-86
2023/12/20 06:15:54;;;;;;;5.28;4.68;;;;;;;6.29;100.00;98874.31;4831445;29;20065;-86
2023/12/20 06:18:20;;;;;;;5.75;4.63;;;;;;;6.20;100.00;98865.19;4873275;29;20515;-86
2023/12/20 06:20:46;;;;;;;6.40;5.38;;;;;;;6.22;100.00;98878.03;4869906;29;20136;-86
2023/12/20 06:23:11;;;;;;;5.35;4.75;;;;;;;6.03;100.00;98841.78;4892169;29;20056;-86
2023/12/20 06:25:36;;;;;;;5.63;5.00;;;;;;;5.99;100.00;98840.22;4897440;29;20024;-86
2023/12/20 06:28:02;;;;;;;5.63;5.03;;;;;;;5.90;100.00;98828.47;4897235;29;20048;-86
2023/12/20 06:30:28;;;;;;;5.22;4.72;;;;;;;6.22;100.00;98890.97;4897360;29;20029;-86
2023/12/20 06:32:54;;;;;;;5.28;4.78;;;;;;;6.06;100.00;98861.47;4881577;29;20033;-86
2023/12/20 06:35:20;;;;;;;5.80;5.20;;;;;;;5.96;100.00;98856.69;4895907;29;20401;-86
2023/12/20 06:37:45;;;;;;;5.70;5.20;;;;;;;6.02;100.00;98858.16;4934446;29;20036;-86
2023/12/20 06:40:12;;;;;;;5.20;4.68;;;;;;;6.18;100.00;98881.66;4938044;29;20039;-88
2023/12/20 06:42:37;;;;;;;6.68;5.05;;;;;;;6.11;100.00;98888.84;4900108;29;20051;-89
2023/12/20 06:45:04;;;;;;;5.57;4.10;;;;;;;6.02;100.00;98898.69;4881190;29;20045;-89
2023/12/20 06:47:29;;;;;;;5.20;4.68;;;;;;;5.70;100.00;98865.44;4881467;29;20094;-88
2023/12/20 06:49:56;;;;;;;5.07;4.47;;;;;;;5.82;100.00;98902.06;4896970;29;20080;-89
2023/12/20 06:52:23;;;;;;;4.40;3.83;;;;;;;5.71;100.00;98897.28;4866141;29;20045;-89
2023/12/20 06:55:02;;;;;;;5.15;3.88;;;;;;;5.65;100.00;98900.97;4896646;29;20040;-89
2023/12/20 06:57:27;;;;;;;4.40;4.00;;;;;;;5.66;100.00;98905.22;4896970;29;20056;-89
2023/12/20 06:59:53;;;;;;;4.82;4.30;;;;;;;5.58;100.00;98894.34;4898393;29;20045;-88
2023/12/20 07:02:19;;;;;;;6.75;3.90;;;;;;;5.59;100.00;98902.94;4882429;29;20048;-88
2023/12/20 07:04:44;;;;;;;3.75;3.35;;;;;;;5.61;100.00;98899.41;4894544;29;20100;-88
2023/12/20 07:07:09;;;;;;;6.45;3.72;;;;;;;5.49;100.00;98885.19;4896717;29;20498;-88
2023/12/20 07:09:35;;;;;;;4.05;3.65;;;;;;;5.57;100.00;98897.00;4896731;29;20040;-87
2023/12/20 07:12:00;;;;;;;3.78;3.25;;;;;;;5.02;100.00;98816.47;4896740;29;20174;-88
2023/12/20 07:14:26;;;;;;;5.38;3.55;;;;;;;5.42;100.00;98888.06;4928567;29;20040;-88
2023/12/20 07:16:51;;;;;;;4.25;3.50;;;;;;;5.55;100.00;98906.53;4934868;29;20039;-88
2023/12/20 07:19:18;;;;;;;4.65;3.83;;;;;;;5.17;100.00;98857.16;4918636;29;20037;-88
2023/12/20 07:21:43;;;;;;;4.53;3.95;;;;;;;5.55;100.00;98920.28;4936660;29;20050;-87
2023/12/20 07:24:09;;;;;;;6.10;4.13;;;;;;;5.53;100.00;98929.84;4937286;29;20381;-87
2023/12/20 07:26:35;;;;;;;5.05;3.97;;;;;;;5.41;100.00;98899.31;4920957;29;20036;-88
2023/12/20 07:29:00;;;;;;;5.78;4.10;;;;;;;5.44;100.00;98909.53;4915319;29;20036;-88
2023/12/20 07:31:27;;;;;;;5.72;3.35;;;;;;;5.30;100.00;98896.28;4915424;29;20052;-88
2023/12/20 07:33:52;;;;;;;6.43;4.80;;;;;;;5.25;100.00;98875.78;4914933;29;20394;-87
2023/12/20 07:36:19;;;;;;;8.93;4.72;;;;;;;5.52;100.00;98923.00;4915179;29;20531;-87
2023/12/20 07:38:45;;;;;;;9.38;3.90;;;;;;;5.24;100.00;98877.53;4916941;29;20044;-87
2023/12/20 07:41:10;;;;;;;7.90;4.93;;;;;;;5.35;100.00;98889.19;4916390;29;20029;-86
2023/12/20 07:43:36;;;;;;;7.90;4.35;;;;;;;5.46;100.00;98912.88;4916726;29;20087;-87
2023/12/20 07:46:05;;;;;;;8.43;4.00;;;;;;;5.50;100.00;98924.78;4899255;29;20031;-87
2023/12/20 07:48:31;;;;;;;4.57;3.75;;;;;;;5.37;100.00;98908.91;4915324;29;20047;-87
2023/12/20 07:50:56;;;;;;;7.35;4.68;;;;;;;5.40;100.00;98916.53;4915321;29;20040;-87
2023/12/20 07:53:22;;;;;;;9.18;5.60;;;;;;;5.23;100.00;98888.78;4915019;29;20071;-87
2023/12/20 07:55:47;;;;;;;11.05;4.78;;;;;;;5.19;100.00;98879.44;4914511;29;20052;-87
2023/12/20 07:58:12;;;;;;;8.65;4.60;;;;;;;5.48;100.00;98930.00;4914507;29;20071;-86
2023/12/20 08:00:38;;;;;;;10.02;5.90;;;;;;;5.41;100.00;98917.38;4916407;29;20076;-86
2023/12/20 08:03:04;;;;;;;7.55;4.55;;;;;;;5.29;100.00;98904.94;4917189;29;20446;-85
2023/12/20 08:05:29;;;;;;;5.85;4.30;;;;;;;5.47;100.00;98919.72;4915900;29;20039;-86
2023/12/20 08:07:54;;;;;;;4.22;3.60;;;;;;;5.42;100.00;98925.06;4917564;29;20107;-86
2023/12/20 08:10:20;;;;;;;4.03;3.50;;;;;;;4.85;100.00;98837.72;4915598;29;20124;-86
2023/12/20 08:12:45;;;;;;;4.75;3.58;;;;;;;5.45;100.00;98926.69;4915556;29;20110;-86
2023/12/20 08:15:10;;;;;;;3.60;3.05;;;;;;;5.08;100.00;98855.75;4915586;29;20076;-86
2023/12/20 08:17:36;;;;;;;3.63;3.30;;;;;;;5.36;100.00;98925.31;4916978;29;20107;-86
2023/12/20 08:20:01;;;;;;;4.22;3.53;;;;;;;5.18;100.00;98890.69;4917204;29;20084;-86
2023/12/20 08:22:26;;;;;;;3.83;3.42;;;;;;;5.31;100.00;98921.19;4916839;29;20067;-86
2023/12/20 08:24:52;;;;;;;7.45;4.00;;;;;;;5.39;100.00;98935.50;4915398;29;20038;-86
2023/12/20 08:27:17;;;;;;;4.05;3.33;;;;;;;5.22;100.00;98902.59;4916900;29;20382;-85
2023/12/20 08:29:46;;;;;;;5.95;3.75;;;;;;;5.18;100.00;98895.84;4915744;29;20032;-84
2023/12/20 08:32:11;;;;;;;4.68;3.63;;;;;;;5.18;100.00;98884.66;4915291;29;20028;-84
2023/12/20 08:34:36;;;;;;;7.57;4.00;;;;;;;5.24;100.00;98902.50;4916736;29;20032;-84
2023/12/20 08:37:02;;;;;;;6.32;4.45;;;;;;;5.20;100.00;98891.44;4916682;29;20032;-85
2023/12/20 08:39:27;;;;;;;11.10;3.83;;;;;;;5.44;100.00;98932.78;4915145;29;20127;-84
2023/12/20 08:41:52;;;;;;;4.47;3.58;;;;;;;5.25;100.00;98904.19;4916642;29;20060;-86
2023/12/20 08:44:18;;;;;;;4.10;3.28;;;;;;;5.41;100.00;98922.53;4915018;29;20028;-85
2023/12/20 08:46:43;;;;;;;5.20;3.00;;;;;;;5.33;100.00;98920.25;4915890;29;20453;-85
2023/12/20 08:49:09;;;;;;;4.18;3.28;;;;;;;5.42;100.00;98937.97;4914998;29;20529;-85
2023/12/20 08:51:35;;;;;;;4.78;3.95;;;;;;;5.22;100.00;98906.88;4916531;29;20032;-85
2023/12/20 09:01:54;;;;;;;83.28;14.13;;;;;;;5.60;100.00;98951.09;4962972;28;20105;-96
2023/12/20 09:04:55;;;;;;;16.45;4.70;;;;;;;5.64;100.00;98965.59;4884543;29;20037;-93
2023/12/20 09:08:37;;;;;;;4.20;3.40;;;;;;;5.55;100.00;98940.94;4859908;29;20049;-93
2023/12/20 09:14:47;;;;;;;32.80;7.88;;;;;;;5.65;100.00;98949.22;4823849;29;20044;-92
2023/12/20 09:17:13;;;;;;;10.60;3.80;;;;;;;5.70;100.00;98952.44;4807872;29;20042;-93
2023/12/20 09:23:12;;;;;;;5.80;3.70;;;;;;;5.78;100.00;98965.09;4947728;23;20556;-93
2023/12/20 09:25:42;;;;;;;5.97;3.67;;;;;;;5.76;100.00;98965.13;4939799;29;20179;-95
2023/12/20 09:28:10;;;;;;;5.10;3.63;;;;;;;5.79;100.00;98970.19;4940238;29;20031;-93
2023/12/20 09:31:50;;;;;;;7.80;4.97;;;;;;;5.80;100.00;98971.03;4954646;29;20093;-95
2023/12/20 09:41:11;;;;;;;4.65;3.50;;;;;;;5.63;100.00;98956.16;4898559;29;20020;-87
2023/12/20 09:43:37;;;;;;;5.65;3.28;;;;;;;5.71;100.00;98956.72;4897189;29;20117;-87
2023/12/20 09:46:05;;;;;;;6.45;3.50;;;;;;;5.69;100.00;98949.03;4895977;29;20032;-87
2023/12/20 09:48:31;;;;;;;5.45;3.15;;;;;;;5.60;100.00;98945.94;4897437;29;20081;-86
2023/12/20 09:50:56;;;;;;;4.65;3.47;;;;;;;5.65;100.00;98941.47;4897606;29;20041;-87
2023/12/20 09:53:29;;;;;;;7.07;3.05;;;;;;;5.57;100.00;98931.41;4883044;29;20028;-86
2023/12/20 09:55:58;;;;;;;4.93;3.45;;;;;;;5.75;100.00;98953.94;4883259;29;20190;-87
2023/12/20 09:58:23;;;;;;;4.72;3.25;;;;;;;5.78;100.00;98944.41;4902254;29;20032;-87
2023/12/20 10:00:49;;;;;;;5.15;3.00;;;;;;;5.68;100.00;98944.75;4884809;29;20032;-86
2023/12/20 10:03:15;;;;;;;5.00;2.90;;;;;;;5.65;100.00;98937.13;4884478;29;20394;-87
2023/12/20 10:05:43;;;;;;;5.82;3.42;;;;;;;5.70;100.00;98935.22;4883494;29;20079;-87
2023/12/20 10:08:08;;;;;;;6.75;3.15;;;;;;;5.73;100.00;98941.97;4883621;29;20033;-86
2023/12/20 10:10:33;;;;;;;5.13;2.90;;;;;;;5.61;100.00;98916.63;4883354;29;20127;-87
2023/12/20 10:13:04;;;;;;;4.05;3.00;;;;;;;5.87;100.00;98950.06;4883617;29;20043;-86
2023/12/20 10:15:30;;;;;;;3.70;2.90;;;;;;;5.72;100.00;98914.47;4883341;29;20056;-86
2023/12/20 10:17:56;;;;;;;6.30;2.95;;;;;;;6.00;100.00;98946.13;4883578;29;20167;-87
2023/12/20 10:20:21;;;;;;;6.28;3.92;;;;;;;5.93;100.00;98933.50;4883096;29;20060;-86
2023/12/20 10:22:47;;;;;;;4.18;2.60;;;;;;;5.88;100.00;98919.88;4883312;29;20371;-88
2023/12/20 10:25:12;;;;;;;3.53;2.40;;;;;;;5.98;100.00;98941.91;4882971;29;20470;-88
2023/12/20 10:27:38;;;;;;;4.38;2.10;;;;;;;5.89;100.00;98939.66;4883171;29;20033;-87
2023/12/20 10:30:04;;;;;;;8.68;3.67;;;;;;;5.83;100.00;98940.75;4882856;29;20030;-88
2023/12/20 10:32:29;;;;;;;4.25;3.08;;;;;;;5.73;100.00;98936.81;4882166;29;20111;-88
2023/12/20 10:34:56;;;;;;;6.43;3.20;;;;;;;5.75;100.00;98932.44;4891985;29;20056;-87
2023/12/20 10:37:22;;;;;;;4.72;2.90;;;;;;;5.72;100.00;98920.47;4901448;29;20118;-87
2023/12/20 10:39:50;;;;;;;5.15;2.60;;;;;;;5.66;100.00;98909.53;4901563;29;20024;-87
2023/12/20 10:42:16;;;;;;;6.03;3.53;;;;;;;5.73;100.00;98924.75;4917963;29;20115;-87
2023/12/20 10:44:42;;;;;;;6.57;3.22;;;;;;;5.76;100.00;98908.28;4900090;29;20032;-87
2023/12/20 10:47:09;;;;;;;4.32;2.40;;;;;;;5.92;100.00;98926.66;4900885;29;20020;-88
2023/12/20 10:49:36;;;;;;;18.58;5.18;;;;;;;5.83;100.00;98912.31;4918133;29;20079;-87
2023/12/20 10:52:03;;;;;;;5.00;2.67;;;;;;;5.66;100.00;98863.03;4918251;29;20024;-87
2023/12/20 10:54:29;;;;;;;5.53;2.45;;;;;;;6.05;100.00;98912.34;4900565;29;20039;-86
2023/12/20 10:56:57;;;;;;;4.15;2.40;;;;;;;5.84;100.00;98875.22;4918036;29;20039;-91
2023/12/20 10:59:24;;;;;;;4.50;2.17;;;;;;;6.10;100.00;98900.06;4900877;29;20036;-85
2023/12/20 11:01:50;;;;;;;5.60;2.03;;;;;;;6.16;100.00;98899.84;4901117;29;20024;-85
2023/12/20 11:04:23;;;;;;;3.15;1.65;;;;;;;6.01;100.00;98853.91;4901191;29;20169;-85
2023/12/20 11:06:59;;;;;;;5.35;2.00;;;;;;;6.17;100.00;98857.56;4901300;29;20032;-85
2023/12/20 11:09:47;;;;;;;5.22;2.00;;;;;;;6.45;100.00;98908.16;4899529;29;20087;-85
2023/12/20 11:12:18;;;;;;;2.72;2.05;;;;;;;6.50;100.00;98904.44;4900356;29;20028;-85
2023/12/20 11:14:43;;;;;;;6.00;1.90;;;;;;;6.59;100.00;98900.63;4917801;29;20032;-85
2023/12/20 11:17:13;;;;;;;6.43;1.98;;;;;;;6.45;100.00;98866.75;4917892;29;20377;-85
2023/12/20 11:20:04;;;;;;;5.33;2.20;;;;;;;6.68;100.00;98900.22;4917848;29;20043;-85
2023/12/20 11:22:33;;;;;;;5.90;2.63;;;;;;;6.28;100.00;98820.91;4917417;29;20327;-85
2023/12/20 11:25:10;;;;;;;4.63;1.90;;;;;;;6.51;100.00;98853.53;4917848;29;20025;-85
2023/12/20 11:27:36;;;;;;;6.22;2.08;;;;;;;6.47;100.00;98847.66;4917471;29;20484;-85
2023/12/20 11:30:06;;;;;;;4.85;1.75;;;;;;;6.52;100.00;98859.56;4917895;29;20020;-85
2023/12/20 11:32:34;;;;;;;8.27;2.58;;;;;;;6.68;100.00;98883.88;4918483;29;20075;-85
2023/12/20 11:35:00;;;;;;;4.68;2.47;;;;;;;6.59;100.00;98872.16;4902654;29;20120;-86
2023/12/20 11:37:31;;;;;;;5.47;2.30;;;;;;;6.41;100.00;98845.34;4901739;29;20498;-86
2023/12/20 11:40:05;;;;;;;6.13;2.80;;;;;;;6.52;100.00;98870.75;4919083;29;20035;-84
2023/12/20 11:42:37;;;;;;;381.20;50.90;;;;;;;6.54;100.00;98850.00;4918821;29;20024;-84
2023/12/20 11:45:03;;;;;;;20.98;5.78;;;;;;;6.40;100.00;98819.53;4901446;29;20080;-84
2023/12/20 11:47:31;;;;;;;5.95;2.40;;;;;;;6.66;100.00;98850.31;4918678;29;20020;-85
2023/12/20 11:49:56;;;;;;;4.47;2.45;;;;;;;6.35;100.00;98786.09;4900681;29;20032;-85
2023/12/20 11:52:21;;;;;;;93.97;15.65;;;;;;;6.63;100.00;98827.16;4917414;29;20071;-85
2023/12/20 11:54:47;;;;;;;9.73;3.40;;;;;;;6.58;100.00;98825.69;4917485;29;20155;-85